createdAt,value
2022-11-22T00:03:31.305Z,996.07
2022-11-22T00:13:31.646Z,995.88
2022-11-22T00:23:31.689Z,995.82
2022-11-22T00:33:32.007Z,995.78
2022-11-22T00:43:32.038Z,995.72
2022-11-22T00:53:32.386Z,995.75
2022-11-22T01:03:32.413Z,995.79
2022-11-22T01:13:32.865Z,995.63
2022-11-22T01:23:32.923Z,995.69
2022-11-22T01:33:34.280Z,995.90
2022-11-22T01:43:33.307Z,995.97
2022-11-22T01:53:33.687Z,995.94
2022-11-22T02:03:33.745Z,995.99
2022-11-22T02:13:34.170Z,996.08
2022-11-22T02:23:34.248Z,996.02
2022-11-22T02:33:36.379Z,996.19
2022-11-22T02:43:34.414Z,996.31
2022-11-22T02:53:34.817Z,996.60
2022-11-22T03:03:34.831Z,996.64
2022-11-22T03:13:35.180Z,996.71
2022-11-22T03:23:35.228Z,996.58
2022-11-22T03:33:35.562Z,996.71
2022-11-22T03:43:35.585Z,996.79
2022-11-22T03:53:35.943Z,996.85
2022-11-22T04:03:35.959Z,996.90
2022-11-22T04:13:36.388Z,997.08
2022-11-22T04:23:36.416Z,996.98
2022-11-22T04:33:37.791Z,997.06
2022-11-22T04:43:36.813Z,997.12
2022-11-22T04:53:37.128Z,997.06
2022-11-22T05:03:37.148Z,997.13
2022-11-22T05:13:37.499Z,997.17
2022-11-22T05:23:37.516Z,997.15
2022-11-22T05:33:38.899Z,997.26
2022-11-22T05:43:37.954Z,997.45
2022-11-22T05:53:38.338Z,997.51
2022-11-22T06:03:38.388Z,997.71
2022-11-22T06:13:40.881Z,997.94
2022-11-22T06:23:38.705Z,998.13
2022-11-22T06:33:38.992Z,998.14
2022-11-22T06:43:42.493Z,998.41
2022-11-22T06:53:47.219Z,998.56
2022-11-22T07:03:40.196Z,998.67
2022-11-22T07:13:39.530Z,998.71
2022-11-22T07:23:39.571Z,998.91
2022-11-22T07:33:39.894Z,998.75
2022-11-22T07:43:39.938Z,998.59
2022-11-22T07:53:40.264Z,998.76
2022-11-22T08:03:40.380Z,998.95
2022-11-22T08:13:40.532Z,999.08
2022-11-22T08:23:40.596Z,999.25
2022-11-22T08:33:40.907Z,999.37
2022-11-22T08:43:40.927Z,999.15
2022-11-22T08:53:41.273Z,999.28
2022-11-22T09:03:41.334Z,999.45
2022-11-22T09:13:41.705Z,999.60
2022-11-22T09:23:41.731Z,999.70
2022-11-22T09:33:42.010Z,999.77
2022-11-22T09:43:42.035Z,999.75
2022-11-22T09:53:42.273Z,999.80
2022-11-22T10:03:42.595Z,999.68
2022-11-22T10:13:42.794Z,999.76
2022-11-22T10:23:42.962Z,999.85
2022-11-22T10:33:44.804Z,999.94
2022-11-22T10:43:43.436Z,999.93
2022-11-22T10:53:43.614Z,999.81
2022-11-22T11:03:43.729Z,999.73
2022-11-22T11:13:43.980Z,999.56
2022-11-22T11:23:44.028Z,999.59
2022-11-22T11:33:44.148Z,999.52
2022-11-22T11:43:44.405Z,999.62
2022-11-22T11:53:44.644Z,999.54
2022-11-22T12:03:44.954Z,999.38
2022-11-22T12:14:12.186Z,999.37
2022-11-22T12:23:50.761Z,999.33
2022-11-22T12:33:46.379Z,999.31
2022-11-22T12:43:45.677Z,999.33
2022-11-22T12:53:45.890Z,999.29
2022-11-22T13:03:46.003Z,999.27
2022-11-22T13:13:46.054Z,999.19
2022-11-22T13:23:46.391Z,999.16
2022-11-22T13:33:46.429Z,999.22
2022-11-22T13:43:46.774Z,999.22
2022-11-22T13:53:46.815Z,999.21
2022-11-22T14:03:47.116Z,999.17
2022-11-22T14:13:47.163Z,999.20
2022-11-22T14:23:47.499Z,999.15
2022-11-22T14:33:47.531Z,999.08
2022-11-22T14:43:47.871Z,999.22
2022-11-22T14:53:47.915Z,999.19
2022-11-22T15:03:50.173Z,999.41
2022-11-22T15:13:48.424Z,999.57
2022-11-22T16:03:50.178Z,999.98
2022-11-22T16:13:49.510Z,1000.15
2022-11-22T16:23:49.409Z,1000.19
2022-11-22T16:33:49.934Z,1000.13
2022-11-22T16:43:50.038Z,1000.17
2022-11-22T16:53:50.853Z,1000.26
2022-11-22T17:03:50.250Z,1000.47
2022-11-22T17:13:50.683Z,1000.45
2022-11-22T17:23:50.834Z,1000.46
2022-11-22T17:33:51.716Z,1000.59
2022-11-22T17:43:51.813Z,1000.61
2022-11-22T17:53:50.970Z,1000.63
2022-11-22T18:03:51.241Z,1000.80
2022-11-22T18:13:54.858Z,1000.76
2022-11-22T18:23:51.615Z,1000.81
2022-11-22T18:33:51.824Z,1000.87
2022-11-22T18:43:51.993Z,1000.90
2022-11-22T18:53:53.694Z,1000.94
2022-11-22T19:03:52.259Z,1000.95
2022-11-22T19:13:52.576Z,1001.03
2022-11-22T19:23:52.719Z,1001.14
2022-11-22T19:33:53.044Z,1001.32
2022-11-22T19:43:54.010Z,1001.27
2022-11-22T19:53:53.250Z,1001.31
2022-11-22T20:03:53.220Z,1001.28
2022-11-22T20:13:53.455Z,1001.28
2022-11-22T20:23:54.477Z,1001.54
2022-11-22T20:33:55.821Z,1001.59
2022-11-22T20:43:55.644Z,1001.70
2022-11-22T20:53:54.349Z,1001.71
2022-11-22T21:03:54.086Z,1001.79
2022-11-22T21:13:54.353Z,1001.96
2022-11-22T21:23:54.579Z,1002.05
2022-11-22T21:33:54.750Z,1002.01
2022-11-22T21:43:54.767Z,1002.01
2022-11-22T21:53:55.094Z,1001.99
2022-11-22T22:03:55.134Z,1002.00
2022-11-22T22:13:56.503Z,1002.02
2022-11-22T22:23:55.520Z,1002.23
2022-11-22T22:33:55.946Z,1002.21
2022-11-22T22:43:55.980Z,1002.25
2022-11-22T22:53:56.318Z,1002.22
2022-11-22T23:03:56.368Z,1002.23
2022-11-22T23:13:56.679Z,1002.24
2022-11-22T23:23:56.710Z,1002.32
2022-11-22T23:33:57.046Z,1002.35
2022-11-22T23:43:57.104Z,1002.33
2022-11-22T23:53:57.533Z,1002.32
